sensor_id;sensor_type;location;lat;lon;timestamp;pressure;altitude;pressure_sealevel;temperature;humidity
51926;BME280;37952;51.938;15.480;2023-05-21T00:02:45;100262.86;;;17.51;66.14
51926;BME280;37952;51.938;15.480;2023-05-21T00:05:48;100265.55;;;17.54;66.02
51926;BME280;37952;51.938;15.480;2023-05-21T00:08:51;100264.97;;;17.56;66.46
51926;BME280;37952;51.938;15.480;2023-05-21T00:11:54;100264.45;;;17.52;66.85
51926;BME280;37952;51.938;15.480;2023-05-21T00:14:58;100263.02;;;17.48;66.52
51926;BME280;37952;51.938;15.480;2023-05-21T00:18:01;100261.02;;;17.46;66.55
51926;BME280;37952;51.938;15.480;2023-05-21T00:21:05;100255.84;;;17.43;66.17
51926;BME280;37952;51.938;15.480;2023-05-21T00:24:08;100247.77;;;17.44;66.16
51926;BME280;37952;51.938;15.480;2023-05-21T00:27:12;100247.61;;;17.47;66.29
51926;BME280;37952;51.938;15.480;2023-05-21T00:30:14;100253.84;;;17.49;66.27
51926;BME280;37952;51.938;15.480;2023-05-21T00:33:18;100251.98;;;17.47;66.19
51926;BME280;37952;51.938;15.480;2023-05-21T00:36:23;100258.27;;;17.49;66.11
51926;BME280;37952;51.938;15.480;2023-05-21T00:39:26;100256.27;;;17.47;66.06
51926;BME280;37952;51.938;15.480;2023-05-21T00:42:29;100258.27;;;17.47;65.88
51926;BME280;37952;51.938;15.480;2023-05-21T00:45:32;100260.00;;;17.47;65.95
51926;BME280;37952;51.938;15.480;2023-05-21T00:48:38;100257.27;;;17.48;66.48
51926;BME280;37952;51.938;15.480;2023-05-21T00:51:41;100258.07;;;17.47;66.34
51926;BME280;37952;51.938;15.480;2023-05-21T00:54:48;100257.30;;;17.48;66.46
51926;BME280;37952;51.938;15.480;2023-05-21T00:57:51;100255.98;;;17.44;66.74
51926;BME280;37952;51.938;15.480;2023-05-21T01:00:54;100253.48;;;17.40;66.69
51926;BME280;37952;51.938;15.480;2023-05-21T01:04:00;100249.73;;;17.33;66.73
51926;BME280;37952;51.938;15.480;2023-05-21T01:07:03;100253.89;;;17.30;66.59
51926;BME280;37952;51.938;15.480;2023-05-21T01:10:09;100253.21;;;17.35;66.96
51926;BME280;37952;51.938;15.480;2023-05-21T01:13:13;100250.21;;;17.36;66.45
51926;BME280;37952;51.938;15.480;2023-05-21T01:16:17;100250.64;;;17.40;66.39
51926;BME280;37952;51.938;15.480;2023-05-21T01:19:21;100249.77;;;17.41;66.27
51926;BME280;37952;51.938;15.480;2023-05-21T01:22:27;100248.98;;;17.40;66.07
51926;BME280;37952;51.938;15.480;2023-05-21T01:25:30;100249.10;;;17.37;66.12
51926;BME280;37952;51.938;15.480;2023-05-21T01:28:33;100244.42;;;17.35;66.24
51926;BME280;37952;51.938;15.480;2023-05-21T01:35:04;100231.52;;;17.29;66.64
51926;BME280;37952;51.938;15.480;2023-05-21T01:38:21;100229.65;;;17.24;66.97
51926;BME280;37952;51.938;15.480;2023-05-21T01:41:26;100229.78;;;17.15;67.49
51926;BME280;37952;51.938;15.480;2023-05-21T01:44:31;100221.80;;;17.08;67.74
51926;BME280;37952;51.938;15.480;2023-05-21T01:47:36;100221.61;;;17.01;68.07
51926;BME280;37952;51.938;15.480;2023-05-21T01:50:40;100222.30;;;16.99;67.78
51926;BME280;37952;51.938;15.480;2023-05-21T01:53:43;100218.58;;;17.01;67.39
51926;BME280;37952;51.938;15.480;2023-05-21T01:56:46;100220.08;;;17.05;67.46
51926;BME280;37952;51.938;15.480;2023-05-21T01:59:50;100218.57;;;16.97;67.95
51926;BME280;37952;51.938;15.480;2023-05-21T02:02:54;100218.10;;;16.91;67.86
51926;BME280;37952;51.938;15.480;2023-05-21T02:05:58;100213.11;;;16.89;68.05
51926;BME280;37952;51.938;15.480;2023-05-21T02:09:01;100213.43;;;16.88;67.84
51926;BME280;37952;51.938;15.480;2023-05-21T02:12:04;100212.73;;;16.80;68.32
51926;BME280;37952;51.938;15.480;2023-05-21T02:15:07;100213.96;;;16.74;68.25
51926;BME280;37952;51.938;15.480;2023-05-21T02:18:10;100217.38;;;16.64;68.38
51926;BME280;37952;51.938;15.480;2023-05-21T02:21:13;100214.71;;;16.60;68.26
51926;BME280;37952;51.938;15.480;2023-05-21T02:24:16;100217.12;;;16.52;68.84
51926;BME280;37952;51.938;15.480;2023-05-21T02:27:19;100214.98;;;16.50;68.33
51926;BME280;37952;51.938;15.480;2023-05-21T02:30:22;100218.19;;;16.47;68.38
51926;BME280;37952;51.938;15.480;2023-05-21T02:33:25;100216.31;;;16.41;68.65
51926;BME280;37952;51.938;15.480;2023-05-21T02:36:27;100211.90;;;16.36;68.42
51926;BME280;37952;51.938;15.480;2023-05-21T02:39:34;100212.09;;;16.34;68.58
51926;BME280;37952;51.938;15.480;2023-05-21T02:42:38;100212.48;;;16.29;68.73
51926;BME280;37952;51.938;15.480;2023-05-21T02:45:41;100205.63;;;16.23;69.04
51926;BME280;37952;51.938;15.480;2023-05-21T02:48:44;100209.42;;;16.16;68.84
51926;BME280;37952;51.938;15.480;2023-05-21T02:51:47;100206.90;;;16.14;68.96
51926;BME280;37952;51.938;15.480;2023-05-21T02:54:50;100204.34;;;16.12;68.86
51926;BME280;37952;51.938;15.480;2023-05-21T02:57:53;100202.86;;;16.10;69.17
51926;BME280;37952;51.938;15.480;2023-05-21T03:00:56;100202.17;;;16.07;69.25
51926;BME280;37952;51.938;15.480;2023-05-21T03:03:58;100199.61;;;16.06;68.94
51926;BME280;37952;51.938;15.480;2023-05-21T03:07:01;100198.33;;;16.09;68.81
51926;BME280;37952;51.938;15.480;2023-05-21T03:10:05;100194.27;;;16.14;68.92
51926;BME280;37952;51.938;15.480;2023-05-21T03:13:08;100192.05;;;16.12;68.49
51926;BME280;37952;51.938;15.480;2023-05-21T03:16:11;100193.70;;;16.16;68.45
51926;BME280;37952;51.938;15.480;2023-05-21T03:19:14;100199.38;;;16.16;68.86
51926;BME280;37952;51.938;15.480;2023-05-21T03:22:17;100196.95;;;16.08;68.75
51926;BME280;37952;51.938;15.480;2023-05-21T03:25:21;100195.21;;;16.03;69.15
51926;BME280;37952;51.938;15.480;2023-05-21T03:28:26;100195.45;;;16.00;68.83
51926;BME280;37952;51.938;15.480;2023-05-21T03:31:29;100193.40;;;15.97;69.11
51926;BME280;37952;51.938;15.480;2023-05-21T03:34:32;100193.95;;;15.94;69.25
51926;BME280;37952;51.938;15.480;2023-05-21T03:37:35;100193.77;;;15.94;69.47
51926;BME280;37952;51.938;15.480;2023-05-21T03:40:38;100192.16;;;15.97;69.46
51926;BME280;37952;51.938;15.480;2023-05-21T03:43:41;100185.39;;;15.97;69.40
51926;BME280;37952;51.938;15.480;2023-05-21T03:46:44;100183.42;;;15.94;69.30
51926;BME280;37952;51.938;15.480;2023-05-21T03:49:46;100179.92;;;15.96;69.12
51926;BME280;37952;51.938;15.480;2023-05-21T03:52:49;100178.73;;;15.98;69.26
51926;BME280;37952;51.938;15.480;2023-05-21T03:55:52;100176.67;;;16.02;69.34
51926;BME280;37952;51.938;15.480;2023-05-21T03:58:56;100173.25;;;16.02;69.50
51926;BME280;37952;51.938;15.480;2023-05-21T04:01:59;100175.11;;;16.03;69.10
51926;BME280;37952;51.938;15.480;2023-05-21T04:05:02;100176.42;;;16.07;68.96
51926;BME280;37952;51.938;15.480;2023-05-21T04:08:06;100176.60;;;16.09;68.74
51926;BME280;37952;51.938;15.480;2023-05-21T04:11:09;100178.31;;;16.15;68.72
51926;BME280;37952;51.938;15.480;2023-05-21T04:14:11;100178.86;;;16.22;68.45
51926;BME280;37952;51.938;15.480;2023-05-21T04:17:14;100183.56;;;16.30;68.47
51926;BME280;37952;51.938;15.480;2023-05-21T04:20:17;100183.95;;;16.30;68.27
51926;BME280;37952;51.938;15.480;2023-05-21T04:23:20;100184.85;;;16.32;68.17
51926;BME280;37952;51.938;15.480;2023-05-21T04:26:25;100185.79;;;16.31;68.18
51926;BME280;37952;51.938;15.480;2023-05-21T04:29:28;100187.76;;;16.31;68.33
51926;BME280;37952;51.938;15.480;2023-05-21T04:32:31;100191.27;;;16.32;68.38
51926;BME280;37952;51.938;15.480;2023-05-21T04:35:36;100194.63;;;16.34;68.34
51926;BME280;37952;51.938;15.480;2023-05-21T04:38:39;100200.20;;;16.31;68.48
51926;BME280;37952;51.938;15.480;2023-05-21T04:41:43;100201.97;;;16.29;68.44
51926;BME280;37952;51.938;15.480;2023-05-21T04:44:46;100199.86;;;16.26;68.44
51926;BME280;37952;51.938;15.480;2023-05-21T04:47:50;100205.38;;;16.22;68.82
51926;BME280;37952;51.938;15.480;2023-05-21T04:50:53;100205.77;;;16.21;68.75
51926;BME280;37952;51.938;15.480;2023-05-21T04:53:57;100209.80;;;16.27;68.51
51926;BME280;37952;51.938;15.480;2023-05-21T04:57:00;100208.55;;;16.34;68.33
51926;BME280;37952;51.938;15.480;2023-05-21T05:00:03;100205.45;;;16.35;68.32
51926;BME280;37952;51.938;15.480;2023-05-21T05:03:07;100206.78;;;16.34;68.53
51926;BME280;37952;51.938;15.480;2023-05-21T05:06:10;100207.36;;;16.35;68.81
51926;BME280;37952;51.938;15.480;2023-05-21T05:09:12;100199.14;;;16.38;68.50
51926;BME280;37952;51.938;15.480;2023-05-21T05:12:15;100201.81;;;16.45;68.63
51926;BME280;37952;51.938;15.480;2023-05-21T05:15:18;100202.56;;;16.49;68.44
51926;BME280;37952;51.938;15.480;2023-05-21T05:18:21;100199.42;;;16.50;68.46
51926;BME280;37952;51.938;15.480;2023-05-21T05:21:23;100198.13;;;16.54;68.45
51926;BME280;37952;51.938;15.480;2023-05-21T05:24:26;100198.09;;;16.58;68.70
51926;BME280;37952;51.938;15.480;2023-05-21T05:27:29;100195.86;;;16.57;68.92
51926;BME280;37952;51.938;15.480;2023-05-21T05:30:31;100193.16;;;16.51;69.16
51926;BME280;37952;51.938;15.480;2023-05-21T05:33:34;100195.91;;;16.52;69.27
51926;BME280;37952;51.938;15.480;2023-05-21T05:36:37;100194.54;;;16.54;68.94
51926;BME280;37952;51.938;15.480;2023-05-21T05:39:40;100194.52;;;16.58;68.94
51926;BME280;37952;51.938;15.480;2023-05-21T05:42:43;100191.22;;;16.65;68.77
51926;BME280;37952;51.938;15.480;2023-05-21T05:45:46;100190.97;;;16.70;68.67
51926;BME280;37952;51.938;15.480;2023-05-21T05:48:48;100187.50;;;16.71;68.76
51926;BME280;37952;51.938;15.480;2023-05-21T05:51:51;100191.48;;;16.73;68.75
51926;BME280;37952;51.938;15.480;2023-05-21T05:54:54;100186.60;;;16.73;68.76
51926;BME280;37952;51.938;15.480;2023-05-21T05:57:57;100187.46;;;16.78;68.77
51926;BME280;37952;51.938;15.480;2023-05-21T06:00:59;100179.93;;;16.86;68.49
51926;BME280;37952;51.938;15.480;2023-05-21T06:04:02;100180.77;;;16.93;68.14
51926;BME280;37952;51.938;15.480;2023-05-21T06:07:05;100182.31;;;16.98;68.07
51926;BME280;37952;51.938;15.480;2023-05-21T06:10:08;100181.63;;;17.02;67.87
51926;BME280;37952;51.938;15.480;2023-05-21T06:13:11;100174.64;;;17.05;67.98
51926;BME280;37952;51.938;15.480;2023-05-21T06:16:14;100175.08;;;17.09;67.99
51926;BME280;37952;51.938;15.480;2023-05-21T06:19:17;100173.22;;;17.12;67.99
51926;BME280;37952;51.938;15.480;2023-05-21T06:22:20;100170.54;;;17.16;67.89
51926;BME280;37952;51.938;15.480;2023-05-21T06:25:26;100170.38;;;17.21;67.78
51926;BME280;37952;51.938;15.480;2023-05-21T06:28:30;100172.41;;;17.24;67.64
51926;BME280;37952;51.938;15.480;2023-05-21T06:31:33;100173.16;;;17.26;67.68
51926;BME280;37952;51.938;15.480;2023-05-21T06:34:35;100173.73;;;17.32;67.65
51926;BME280;37952;51.938;15.480;2023-05-21T06:37:38;100170.83;;;17.42;67.50
51926;BME280;37952;51.938;15.480;2023-05-21T06:40:41;100169.73;;;17.50;67.14
51926;BME280;37952;51.938;15.480;2023-05-21T06:43:46;100170.88;;;17.58;67.11
51926;BME280;37952;51.938;15.480;2023-05-21T06:46:48;100169.91;;;17.65;66.91
51926;BME280;37952;51.938;15.480;2023-05-21T06:49:51;100173.65;;;17.72;66.67
51926;BME280;37952;51.938;15.480;2023-05-21T06:52:54;100171.91;;;17.78;66.82
51926;BME280;37952;51.938;15.480;2023-05-21T06:55:56;100176.43;;;17.88;66.65
51926;BME280;37952;51.938;15.480;2023-05-21T06:58:59;100174.98;;;17.97;66.40
51926;BME280;37952;51.938;15.480;2023-05-21T07:02:02;100176.65;;;18.04;66.09
51926;BME280;37952;51.938;15.480;2023-05-21T07:05:06;100173.27;;;18.09;65.92
51926;BME280;37952;51.938;15.480;2023-05-21T07:08:09;100176.26;;;18.11;65.86
51926;BME280;37952;51.938;15.480;2023-05-21T07:11:13;100180.13;;;18.18;65.95
51926;BME280;37952;51.938;15.480;2023-05-21T07:14:16;100170.42;;;18.25;65.75
51926;BME280;37952;51.938;15.480;2023-05-21T07:17:19;100174.48;;;18.32;65.68
51926;BME280;37952;51.938;15.480;2023-05-21T07:20:22;100176.24;;;18.39;65.30
51926;BME280;37952;51.938;15.480;2023-05-21T07:23:27;100178.33;;;18.46;65.14
51926;BME280;37952;51.938;15.480;2023-05-21T07:26:30;100170.42;;;18.50;64.63
51926;BME280;37952;51.938;15.480;2023-05-21T07:29:33;100173.43;;;18.55;64.69
51926;BME280;37952;51.938;15.480;2023-05-21T07:32:35;100170.60;;;18.61;64.30
51926;BME280;37952;51.938;15.480;2023-05-21T07:35:38;100172.22;;;18.67;63.87
51926;BME280;37952;51.938;15.480;2023-05-21T07:38:43;100169.94;;;18.73;63.47
51926;BME280;37952;51.938;15.480;2023-05-21T07:41:45;100169.98;;;18.78;63.24
51926;BME280;37952;51.938;15.480;2023-05-21T07:44:48;100169.62;;;18.84;63.20
51926;BME280;37952;51.938;15.480;2023-05-21T07:47:51;100172.65;;;18.90;63.13
51926;BME280;37952;51.938;15.480;2023-05-21T07:50:54;100174.91;;;18.97;63.21
51926;BME280;37952;51.938;15.480;2023-05-21T07:53:58;100175.49;;;19.00;62.67
51926;BME280;37952;51.938;15.480;2023-05-21T07:57:01;100175.77;;;19.08;62.38
51926;BME280;37952;51.938;15.480;2023-05-21T08:00:05;100174.25;;;19.15;62.26
51926;BME280;37952;51.938;15.480;2023-05-21T08:03:17;100172.69;;;19.20;62.24
51926;BME280;37952;51.938;15.480;2023-05-21T08:06:20;100172.95;;;19.27;61.92
51926;BME280;37952;51.938;15.480;2023-05-21T08:09:26;100170.09;;;19.33;61.46
51926;BME280;37952;51.938;15.480;2023-05-21T08:12:29;100172.24;;;19.41;61.06
51926;BME280;37952;51.938;15.480;2023-05-21T08:15:32;100173.73;;;19.46;60.98
51926;BME280;37952;51.938;15.480;2023-05-21T08:18:34;100175.01;;;19.54;60.51
51926;BME280;37952;51.938;15.480;2023-05-21T08:21:37;100180.05;;;19.62;60.90
51926;BME280;37952;51.938;15.480;2023-05-21T08:24:40;100177.11;;;19.68;61.11
51926;BME280;37952;51.938;15.480;2023-05-21T08:27:43;100175.99;;;19.78;61.07
51926;BME280;37952;51.938;15.480;2023-05-21T08:30:46;100176.05;;;19.89;60.90
51926;BME280;37952;51.938;15.480;2023-05-21T08:33:52;100169.58;;;19.98;60.79
51926;BME280;37952;51.938;15.480;2023-05-21T08:36:56;100172.89;;;20.03;60.96
51926;BME280;37952;51.938;15.480;2023-05-21T08:39:58;100176.54;;;20.04;60.97
51926;BME280;37952;51.938;15.480;2023-05-21T08:43:01;100173.84;;;20.08;60.96
51926;BME280;37952;51.938;15.480;2023-05-21T08:46:05;100172.77;;;20.12;60.76
51926;BME280;37952;51.938;15.480;2023-05-21T08:49:11;100178.80;;;20.12;60.62
51926;BME280;37952;51.938;15.480;2023-05-21T08:52:18;100178.92;;;20.13;60.38
51926;BME280;37952;51.938;15.480;2023-05-21T08:55:23;100179.30;;;20.17;60.09
51926;BME280;37952;51.938;15.480;2023-05-21T08:58:26;100183.03;;;20.23;59.03
51926;BME280;37952;51.938;15.480;2023-05-21T09:01:31;100179.70;;;20.30;58.54
51926;BME280;37952;51.938;15.480;2023-05-21T09:04:35;100176.13;;;20.35;58.91
51926;BME280;37952;51.938;15.480;2023-05-21T09:11:00;100180.52;;;20.38;58.75
51926;BME280;37952;51.938;15.480;2023-05-21T09:14:05;100177.67;;;20.44;58.21
51926;BME280;37952;51.938;15.480;2023-05-21T09:17:12;100176.16;;;20.54;58.18
51926;BME280;37952;51.938;15.480;2023-05-21T09:20:15;100181.61;;;20.60;57.59
51926;BME280;37952;51.938;15.480;2023-05-21T09:23:18;100177.98;;;20.67;57.74
51926;BME280;37952;51.938;15.480;2023-05-21T09:26:22;100181.92;;;20.76;57.44
51926;BME280;37952;51.938;15.480;2023-05-21T09:29:25;100185.23;;;20.88;56.79
51926;BME280;37952;51.938;15.480;2023-05-21T09:32:28;100180.07;;;21.05;57.42
51926;BME280;37952;51.938;15.480;2023-05-21T09:35:31;100183.13;;;21.14;57.08
51926;BME280;37952;51.938;15.480;2023-05-21T09:38:35;100179.95;;;21.22;55.79
51926;BME280;37952;51.938;15.480;2023-05-21T09:41:41;100182.83;;;21.33;56.54
51926;BME280;37952;51.938;15.480;2023-05-21T09:44:43;100180.26;;;21.41;55.08
51926;BME280;37952;51.938;15.480;2023-05-21T09:47:47;100178.17;;;21.49;55.31
51926;BME280;37952;51.938;15.480;2023-05-21T09:50:51;100177.56;;;21.56;55.80
51926;BME280;37952;51.938;15.480;2023-05-21T09:53:55;100177.01;;;21.58;54.92
51926;BME280;37952;51.938;15.480;2023-05-21T09:57:01;100177.55;;;21.65;54.76
51926;BME280;37952;51.938;15.480;2023-05-21T10:00:06;100176.88;;;21.68;55.45
51926;BME280;37952;51.938;15.480;2023-05-21T10:03:11;100178.36;;;21.64;53.88
51926;BME280;37952;51.938;15.480;2023-05-21T10:06:16;100173.89;;;21.60;53.38
51926;BME280;37952;51.938;15.480;2023-05-21T10:09:20;100174.19;;;21.59;53.48
51926;BME280;37952;51.938;15.480;2023-05-21T10:12:24;100170.63;;;21.60;53.69
51926;BME280;37952;51.938;15.480;2023-05-21T10:15:32;100169.27;;;21.62;53.41
51926;BME280;37952;51.938;15.480;2023-05-21T10:18:37;100163.18;;;21.63;53.52
51926;BME280;37952;51.938;15.480;2023-05-21T10:21:40;100162.96;;;21.65;52.02
51926;BME280;37952;51.938;15.480;2023-05-21T10:24:44;100162.36;;;21.69;52.51
51926;BME280;37952;51.938;15.480;2023-05-21T10:27:47;100162.45;;;21.72;52.60
51926;BME280;37952;51.938;15.480;2023-05-21T10:30:50;100156.94;;;21.73;52.88
51926;BME280;37952;51.938;15.480;2023-05-21T10:33:55;100154.07;;;21.73;52.68
51926;BME280;37952;51.938;15.480;2023-05-21T10:37:00;100152.77;;;21.78;51.90
51926;BME280;37952;51.938;15.480;2023-05-21T10:40:04;100148.87;;;21.84;51.31
51926;BME280;37952;51.938;15.480;2023-05-21T10:43:47;100146.14;;;21.88;51.97
51926;BME280;37952;51.938;15.480;2023-05-21T10:54:40;100133.81;;;22.13;51.54
51926;BME280;37952;51.938;15.480;2023-05-21T11:01:17;100129.84;;;22.34;49.63
51926;BME280;37952;51.938;15.480;2023-05-21T11:04:28;100133.67;;;22.47;49.17
51926;BME280;37952;51.938;15.480;2023-05-21T11:07:55;100131.91;;;22.57;49.18
51926;BME280;37952;51.938;15.480;2023-05-21T11:10:58;100130.35;;;22.63;48.02
51926;BME280;37952;51.938;15.480;2023-05-21T11:14:36;100134.88;;;22.70;47.79
51926;BME280;37952;51.938;15.480;2023-05-21T11:17:41;100136.11;;;22.80;46.65
51926;BME280;37952;51.938;15.480;2023-05-21T11:20:50;100130.26;;;22.87;47.82
51926;BME280;37952;51.938;15.480;2023-05-21T11:23:54;100131.23;;;22.91;46.36
51926;BME280;37952;51.938;15.480;2023-05-21T11:26:59;100128.49;;;22.98;47.07
51926;BME280;37952;51.938;15.480;2023-05-21T11:30:08;100126.11;;;23.04;47.42
51926;BME280;37952;51.938;15.480;2023-05-21T11:36:15;100120.33;;;23.09;48.23
51926;BME280;37952;51.938;15.480;2023-05-21T11:39:18;100114.33;;;23.18;47.15
51926;BME280;37952;51.938;15.480;2023-05-21T11:42:30;100118.27;;;23.28;46.95
51926;BME280;37952;51.938;15.480;2023-05-21T11:45:33;100113.15;;;23.36;46.19
51926;BME280;37952;51.938;15.480;2023-05-21T11:48:36;100111.17;;;23.42;45.41
51926;BME280;37952;51.938;15.480;2023-05-21T11:51:41;100102.27;;;23.52;46.11
51926;BME280;37952;51.938;15.480;2023-05-21T11:54:46;100110.39;;;23.60;45.71
51926;BME280;37952;51.938;15.480;2023-05-21T11:57:53;100105.55;;;23.66;46.30
51926;BME280;37952;51.938;15.480;2023-05-21T12:00:56;100102.95;;;23.70;45.63
51926;BME280;37952;51.938;15.480;2023-05-21T12:04:03;100102.27;;;23.76;45.56
51926;BME280;37952;51.938;15.480;2023-05-21T12:07:06;100097.52;;;23.87;43.30
51926;BME280;37952;51.938;15.480;2023-05-21T12:10:10;100102.98;;;23.98;45.26
51926;BME280;37952;51.938;15.480;2023-05-21T12:13:13;100106.77;;;24.07;45.38
51926;BME280;37952;51.938;15.480;2023-05-21T12:16:16;100103.24;;;24.19;45.38
51926;BME280;37952;51.938;15.480;2023-05-21T12:19:19;100103.59;;;24.29;44.20
51926;BME280;37952;51.938;15.480;2023-05-21T12:22:24;100103.11;;;24.35;42.81
51926;BME280;37952;51.938;15.480;2023-05-21T12:25:30;100105.23;;;24.40;42.38
51926;BME280;37952;51.938;15.480;2023-05-21T12:28:33;100095.14;;;24.47;43.66
51926;BME280;37952;51.938;15.480;2023-05-21T12:31:47;100104.21;;;24.57;42.60
51926;BME280;37952;51.938;15.480;2023-05-21T12:34:55;100107.77;;;24.71;43.28
51926;BME280;37952;51.938;15.480;2023-05-21T12:38:01;100108.70;;;24.81;42.35
51926;BME280;37952;51.938;15.480;2023-05-21T12:41:05;100105.90;;;24.88;41.87
51926;BME280;37952;51.938;15.480;2023-05-21T12:44:10;100105.88;;;24.92;41.31
51926;BME280;37952;51.938;15.480;2023-05-21T12:47:13;100103.98;;;24.91;40.43
51926;BME280;37952;51.938;15.480;2023-05-21T12:50:19;100103.66;;;24.95;41.51
51926;BME280;37952;51.938;15.480;2023-05-21T12:53:22;100103.39;;;24.99;40.97
51926;BME280;37952;51.938;15.480;2023-05-21T12:56:25;100101.85;;;25.07;41.50
51926;BME280;37952;51.938;15.480;2023-05-21T12:59:42;100097.52;;;25.16;41.71
51926;BME280;37952;51.938;15.480;2023-05-21T13:02:45;100103.90;;;25.22;40.08
51926;BME280;37952;51.938;15.480;2023-05-21T13:05:57;100102.27;;;25.29;40.10
51926;BME280;37952;51.938;15.480;2023-05-21T13:09:00;100095.48;;;25.41;39.65
51926;BME280;37952;51.938;15.480;2023-05-21T13:12:03;100088.80;;;25.46;39.88
51926;BME280;37952;51.938;15.480;2023-05-21T13:15:06;100091.86;;;25.53;41.22
51926;BME280;37952;51.938;15.480;2023-05-21T13:18:09;100089.89;;;25.75;40.27
51926;BME280;37952;51.938;15.480;2023-05-21T13:21:13;100095.88;;;25.86;38.13
51926;BME280;37952;51.938;15.480;2023-05-21T13:24:16;100086.38;;;25.94;37.24
51926;BME280;37952;51.938;15.480;2023-05-21T13:27:19;100086.52;;;26.07;38.42
51926;BME280;37952;51.938;15.480;2023-05-21T13:30:21;100085.36;;;26.23;39.22
51926;BME280;37952;51.938;15.480;2023-05-21T13:33:24;100086.81;;;26.37;37.78
51926;BME280;37952;51.938;15.480;2023-05-21T13:36:27;100081.02;;;26.55;37.69
51926;BME280;37952;51.938;15.480;2023-05-21T13:39:30;100083.94;;;26.75;38.20
51926;BME280;37952;51.938;15.480;2023-05-21T13:42:34;100081.23;;;26.96;35.63
51926;BME280;37952;51.938;15.480;2023-05-21T13:45:37;100074.03;;;27.16;34.96
51926;BME280;37952;51.938;15.480;2023-05-21T13:48:40;100068.57;;;27.37;37.50
51926;BME280;37952;51.938;15.480;2023-05-21T13:51:44;100075.77;;;27.59;35.89
51926;BME280;37952;51.938;15.480;2023-05-21T13:54:47;100079.36;;;27.83;35.38
51926;BME280;37952;51.938;15.480;2023-05-21T13:57:50;100075.50;;;28.11;35.48
51926;BME280;37952;51.938;15.480;2023-05-21T14:00:53;100074.98;;;28.36;34.41
51926;BME280;37952;51.938;15.480;2023-05-21T14:03:56;100074.73;;;28.60;35.02
51926;BME280;37952;51.938;15.480;2023-05-21T14:06:59;100070.10;;;28.75;33.20
51926;BME280;37952;51.938;15.480;2023-05-21T14:10:02;100072.31;;;28.92;35.67
51926;BME280;37952;51.938;15.480;2023-05-21T14:13:05;100069.58;;;29.12;35.05
51926;BME280;37952;51.938;15.480;2023-05-21T14:16:21;100067.95;;;29.30;34.68
51926;BME280;37952;51.938;15.480;2023-05-21T14:19:26;100064.67;;;29.38;34.27
51926;BME280;37952;51.938;15.480;2023-05-21T14:22:31;100067.77;;;29.41;35.36
51926;BME280;37952;51.938;15.480;2023-05-21T14:25:34;100067.60;;;29.33;34.12
51926;BME280;37952;51.938;15.480;2023-05-21T14:28:37;100057.96;;;29.25;34.52
51926;BME280;37952;51.938;15.480;2023-05-21T14:31:40;100068.73;;;29.20;33.42
51926;BME280;37952;51.938;15.480;2023-05-21T14:34:43;100068.20;;;29.13;32.69
51926;BME280;37952;51.938;15.480;2023-05-21T14:37:46;100071.92;;;29.08;32.79
51926;BME280;37952;51.938;15.480;2023-05-21T14:40:48;100074.73;;;29.07;32.92
51926;BME280;37952;51.938;15.480;2023-05-21T14:43:52;100075.66;;;29.07;33.00
51926;BME280;37952;51.938;15.480;2023-05-21T14:46:54;100071.95;;;29.01;33.46
51926;BME280;37952;51.938;15.480;2023-05-21T14:49:59;100076.51;;;28.96;32.70
51926;BME280;37952;51.938;15.480;2023-05-21T14:53:06;100071.55;;;28.95;32.22
51926;BME280;37952;51.938;15.480;2023-05-21T14:56:09;100065.27;;;28.92;32.00
51926;BME280;37952;51.938;15.480;2023-05-21T14:59:12;100070.02;;;28.75;30.63
51926;BME280;37952;51.938;15.480;2023-05-21T15:02:15;100071.20;;;28.72;32.26
51926;BME280;37952;51.938;15.480;2023-05-21T15:05:19;100065.62;;;28.70;31.94
51926;BME280;37952;51.938;15.480;2023-05-21T15:08:21;100069.77;;;28.69;32.19
51926;BME280;37952;51.938;15.480;2023-05-21T15:11:24;100064.91;;;28.67;32.97
51926;BME280;37952;51.938;15.480;2023-05-21T15:14:27;100063.24;;;28.70;32.52
51926;BME280;37952;51.938;15.480;2023-05-21T15:17:29;100056.71;;;28.72;33.01
51926;BME280;37952;51.938;15.480;2023-05-21T15:20:32;100061.27;;;28.68;31.72
51926;BME280;37952;51.938;15.480;2023-05-21T15:23:35;100057.92;;;28.52;30.51
51926;BME280;37952;51.938;15.480;2023-05-21T15:26:38;100059.27;;;28.38;31.98
51926;BME280;37952;51.938;15.480;2023-05-21T15:29:41;100057.94;;;28.25;30.78
51926;BME280;37952;51.938;15.480;2023-05-21T15:32:43;100055.61;;;28.15;31.90
51926;BME280;37952;51.938;15.480;2023-05-21T15:35:46;100057.83;;;28.05;31.08
51926;BME280;37952;51.938;15.480;2023-05-21T15:38:49;100052.09;;;27.97;31.46
51926;BME280;37952;51.938;15.480;2023-05-21T15:41:53;100053.36;;;27.96;31.55
51926;BME280;37952;51.938;15.480;2023-05-21T15:44:56;100052.79;;;27.99;32.11
51926;BME280;37952;51.938;15.480;2023-05-21T15:47:58;100050.96;;;28.04;32.33
51926;BME280;37952;51.938;15.480;2023-05-21T15:51:01;100042.87;;;28.07;31.85
51926;BME280;37952;51.938;15.480;2023-05-21T15:54:05;100040.93;;;28.09;32.19
51926;BME280;37952;51.938;15.480;2023-05-21T15:57:07;100035.33;;;28.08;31.99
51926;BME280;37952;51.938;15.480;2023-05-21T16:00:11;100032.43;;;28.05;32.12
51926;BME280;37952;51.938;15.480;2023-05-21T16:03:14;100036.16;;;28.05;32.81
51926;BME280;37952;51.938;15.480;2023-05-21T16:06:17;100031.24;;;27.99;32.59
51926;BME280;37952;51.938;15.480;2023-05-21T16:09:21;100030.95;;;27.90;32.67
51926;BME280;37952;51.938;15.480;2023-05-21T16:12:24;100029.80;;;27.76;32.75